createdAt,value
2023-02-19T00:00:17.066Z,97744.75
2023-02-19T00:02:48.495Z,97753.66
2023-02-19T00:05:17.391Z,97752.47
2023-02-19T00:07:46.172Z,97755.31
2023-02-19T00:10:14.923Z,97753.81
2023-02-19T00:12:43.775Z,97748.72
2023-02-19T00:15:12.622Z,97760.34
2023-02-19T00:17:41.581Z,97762.66
2023-02-19T00:20:10.881Z,97765.91
2023-02-19T00:22:39.678Z,97767.38
2023-02-19T00:25:08.624Z,97784.84
2023-02-19T00:27:37.489Z,97786.03
2023-02-19T00:30:06.676Z,97782.06
2023-02-19T00:32:35.741Z,97787.97
2023-02-19T00:35:05.313Z,97780.84
2023-02-19T00:37:34.169Z,97779.91
2023-02-19T00:40:02.938Z,97784.75
2023-02-19T00:42:32.325Z,97785.44
2023-02-19T00:45:01.163Z,97784.47
2023-02-19T00:47:32.175Z,97789.91
2023-02-19T00:50:01.610Z,97787.63
2023-02-19T00:52:32.182Z,97776.28
2023-02-19T00:55:02.315Z,97776.66
2023-02-19T00:57:32.641Z,97791.94
2023-02-19T01:00:01.384Z,97793.50
2023-02-19T01:02:35.365Z,97775.16
2023-02-19T01:05:04.306Z,97783.69
2023-02-19T01:07:35.835Z,97782.44
2023-02-19T01:10:05.927Z,97792.13
2023-02-19T01:12:34.973Z,97789.94
2023-02-19T01:15:05.021Z,97779.38
2023-02-19T01:17:36.092Z,97789.75
2023-02-19T01:20:05.134Z,97791.03
2023-02-19T01:22:33.981Z,97777.53
2023-02-19T01:25:03.059Z,97770.72
2023-02-19T01:27:31.880Z,97784.47
2023-02-19T01:30:00.805Z,97772.50
2023-02-19T01:32:29.650Z,97784.69
2023-02-19T01:34:58.672Z,97786.66
2023-02-19T01:37:28.008Z,97784.13
2023-02-19T01:39:58.815Z,97785.16
2023-02-19T01:42:28.186Z,97769.38
2023-02-19T01:45:22.805Z,97785.97
2023-02-19T01:48:10.063Z,97780.94
2023-02-19T01:51:10.466Z,97790.31
2023-02-19T01:53:51.306Z,97791.28
2023-02-19T01:56:22.693Z,97791.69
2023-02-19T01:58:52.166Z,97783.81
2023-02-19T02:01:22.019Z,97784.19
2023-02-19T02:03:53.431Z,97784.66
2023-02-19T02:06:31.521Z,97779.72
2023-02-19T02:09:23.171Z,97782.28
2023-02-19T02:11:54.603Z,97781.81
2023-02-19T02:14:29.327Z,97783.19
2023-02-19T02:17:21.003Z,97768.50
2023-02-19T02:20:14.776Z,97777.44
2023-02-19T02:22:55.224Z,97782.88
2023-02-19T02:25:52.405Z,97782.94
2023-02-19T02:28:47.476Z,97787.13
2023-02-19T02:31:36.527Z,97787.81
2023-02-19T02:34:15.551Z,97796.13
2023-02-19T02:36:49.793Z,97803.06
2023-02-19T02:39:23.335Z,97799.63
2023-02-19T02:42:18.054Z,97803.94
2023-02-19T02:45:17.949Z,97800.25
2023-02-19T02:47:55.837Z,97793.59
2023-02-19T02:50:29.573Z,97786.88
2023-02-19T02:53:21.313Z,97799.91
2023-02-19T02:55:53.981Z,97801.34
2023-02-19T02:58:25.864Z,97793.03
2023-02-19T03:01:25.895Z,97813.38
2023-02-19T03:04:10.891Z,97803.16
2023-02-19T03:06:42.270Z,97799.75
2023-02-19T03:09:41.156Z,97797.94
2023-02-19T03:12:37.112Z,97797.91
2023-02-19T03:15:29.421Z,97810.66
2023-02-19T03:18:21.526Z,97810.38
2023-02-19T03:20:57.395Z,97803.75
2023-02-19T03:23:49.192Z,97796.03
2023-02-19T03:26:21.569Z,97792.78
2023-02-19T03:29:13.388Z,97791.88
2023-02-19T03:31:47.418Z,97806.78
2023-02-19T03:34:22.695Z,97791.94
2023-02-19T03:37:13.127Z,97802.41
2023-02-19T03:39:48.034Z,97795.78
2023-02-19T03:42:33.971Z,97797.38
2023-02-19T03:45:28.695Z,97803.03
2023-02-19T03:48:13.169Z,97810.81
2023-02-19T03:50:51.755Z,97811.91
2023-02-19T03:53:29.543Z,97809.75
2023-02-19T03:56:14.768Z,97792.34
2023-02-19T03:59:11.031Z,97808.50
2023-02-19T04:01:57.635Z,97806.13
2023-02-19T04:04:42.448Z,97800.56
2023-02-19T04:07:12.126Z,97800.22
2023-02-19T04:09:49.583Z,97803.28
2023-02-19T04:12:23.203Z,97809.94
2023-02-19T04:15:03.102Z,97800.25
2023-02-19T04:17:40.037Z,97800.34
2023-02-19T04:20:11.367Z,97785.09
2023-02-19T04:22:42.151Z,97798.88
2023-02-19T04:25:11.119Z,97792.66
2023-02-19T04:27:41.504Z,97791.75
2023-02-19T04:30:12.887Z,97790.63
2023-02-19T04:32:41.807Z,97791.59
2023-02-19T04:35:10.622Z,97781.41
2023-02-19T04:37:39.513Z,97783.25
2023-02-19T04:40:08.966Z,97772.00
2023-02-19T04:42:37.770Z,97777.69
2023-02-19T04:45:07.004Z,97761.44
2023-02-19T04:47:35.831Z,97770.38
2023-02-19T04:50:05.889Z,97761.72
2023-02-19T04:52:34.811Z,97752.63
2023-02-19T04:55:03.714Z,97764.50
2023-02-19T04:57:32.631Z,97764.97
2023-02-19T05:00:01.476Z,97771.03
2023-02-19T05:02:33.076Z,97774.28
2023-02-19T05:05:02.174Z,97777.56
2023-02-19T05:07:32.007Z,97773.81
2023-02-19T05:10:00.965Z,97770.28
2023-02-19T05:12:31.787Z,97769.47
2023-02-19T05:15:00.620Z,97762.84
2023-02-19T05:17:35.000Z,97766.75
2023-02-19T05:20:04.726Z,97761.09
2023-02-19T05:22:33.616Z,97765.91
2023-02-19T05:25:02.442Z,97759.41
2023-02-19T05:27:32.927Z,97766.91
2023-02-19T05:30:02.170Z,97755.97
2023-02-19T05:32:32.634Z,97764.50
2023-02-19T05:35:01.402Z,97755.09
2023-02-19T05:37:31.796Z,97763.50
2023-02-19T05:40:00.633Z,97758.59
2023-02-19T05:42:29.762Z,97758.94
2023-02-19T05:44:58.522Z,97758.13
2023-02-19T05:47:27.352Z,97757.25
2023-02-19T05:49:56.290Z,97758.56
2023-02-19T05:52:25.055Z,97757.88
2023-02-19T05:54:53.922Z,97749.78
2023-02-19T05:57:22.693Z,97749.25
2023-02-19T05:59:51.523Z,97747.47
2023-02-19T06:02:21.095Z,97744.28
2023-02-19T06:04:50.055Z,97757.38
2023-02-19T06:07:18.853Z,97751.06
2023-02-19T06:09:50.726Z,97747.91
2023-02-19T06:12:19.622Z,97746.50
2023-02-19T06:14:49.087Z,97752.91
2023-02-19T06:17:18.289Z,97744.22
2023-02-19T06:19:47.118Z,97745.47
2023-02-19T06:22:17.368Z,97746.69
2023-02-19T06:24:46.346Z,97747.00
2023-02-19T06:27:15.485Z,97740.53
2023-02-19T06:29:44.345Z,97732.44
2023-02-19T06:32:13.190Z,97716.50
2023-02-19T06:34:42.246Z,97738.34
2023-02-19T06:37:11.226Z,97735.88
2023-02-19T06:39:40.092Z,97727.47
2023-02-19T06:42:08.920Z,97741.53
2023-02-19T06:44:37.982Z,97739.78
2023-02-19T06:47:06.758Z,97743.69
2023-02-19T06:49:35.520Z,97743.25
2023-02-19T06:52:04.419Z,97750.41
2023-02-19T06:54:34.087Z,97746.13
2023-02-19T06:57:03.146Z,97745.47
2023-02-19T06:59:31.917Z,97750.97
2023-02-19T07:02:01.650Z,97761.75
2023-02-19T07:04:30.802Z,97758.13
2023-02-19T07:07:00.802Z,97747.69
2023-02-19T07:09:29.680Z,97760.97
2023-02-19T07:11:58.521Z,97752.00
2023-02-19T07:14:27.362Z,97746.69
2023-02-19T07:16:56.531Z,97746.06
2023-02-19T07:19:25.741Z,97748.31
2023-02-19T07:21:54.528Z,97738.78
2023-02-19T07:24:23.366Z,97734.84
2023-02-19T07:26:52.187Z,97728.19
2023-02-19T07:29:20.996Z,97731.88
2023-02-19T07:31:49.835Z,97725.53
2023-02-19T07:34:18.754Z,97731.47
2023-02-19T07:36:47.546Z,97736.03
2023-02-19T07:39:16.569Z,97730.72
2023-02-19T07:41:45.488Z,97733.75
2023-02-19T07:44:27.428Z,97734.47
2023-02-19T07:46:56.287Z,97734.03
2023-02-19T07:49:25.109Z,97713.06
2023-02-19T07:51:53.866Z,97728.75
2023-02-19T07:54:22.701Z,97724.38
2023-02-19T07:56:51.540Z,97720.69
2023-02-19T07:59:22.135Z,97731.66
2023-02-19T08:02:09.540Z,97717.91
2023-02-19T08:04:38.924Z,97724.28
2023-02-19T08:07:07.927Z,97720.25
2023-02-19T08:09:36.777Z,97727.88
2023-02-19T08:12:24.419Z,97726.06
2023-02-19T08:14:53.236Z,97719.69
2023-02-19T08:17:22.044Z,97712.94
2023-02-19T08:19:50.937Z,97718.16
2023-02-19T08:22:19.734Z,97722.63
2023-02-19T08:24:48.494Z,97721.88
2023-02-19T08:27:17.298Z,97719.88
2023-02-19T08:29:46.124Z,97727.97
2023-02-19T08:32:14.910Z,97728.25
2023-02-19T08:34:43.750Z,97719.63
2023-02-19T08:37:12.569Z,97714.19
2023-02-19T08:39:41.384Z,97711.16
2023-02-19T08:42:10.493Z,97717.84
2023-02-19T08:44:39.311Z,97706.50
2023-02-19T08:47:08.614Z,97704.47
2023-02-19T08:49:37.483Z,97718.38
2023-02-19T08:52:06.341Z,97709.31
2023-02-19T08:54:37.117Z,97703.94
2023-02-19T08:57:06.341Z,97700.47
2023-02-19T08:59:35.115Z,97691.38
2023-02-19T09:02:04.869Z,97693.31
2023-02-19T09:04:33.940Z,97682.22
2023-02-19T09:07:02.959Z,97689.56
2023-02-19T09:09:31.790Z,97681.16
2023-02-19T09:12:00.844Z,97685.63
2023-02-19T09:14:34.349Z,97686.56
2023-02-19T09:17:04.794Z,97684.72
2023-02-19T09:19:34.490Z,97673.13
2023-02-19T09:22:04.899Z,97698.13
2023-02-19T09:24:34.563Z,97688.38
2023-02-19T09:27:03.377Z,97690.53
2023-02-19T09:29:32.348Z,97677.19
2023-02-19T09:32:04.491Z,97680.25
2023-02-19T09:34:33.407Z,97683.97
2023-02-19T09:37:02.276Z,97673.81
2023-02-19T09:39:31.230Z,97669.63
2023-02-19T09:42:04.984Z,97670.69
2023-02-19T09:44:39.867Z,97689.81
2023-02-19T09:47:27.040Z,97689.81
2023-02-19T09:50:00.586Z,97682.91
2023-02-19T09:52:38.644Z,97673.03
2023-02-19T09:55:28.602Z,97669.19
2023-02-19T09:58:00.411Z,97666.31
2023-02-19T10:00:34.263Z,97670.31
2023-02-19T10:03:07.604Z,97669.84
2023-02-19T10:05:36.795Z,97669.38
2023-02-19T10:08:08.840Z,97661.84
2023-02-19T10:10:38.686Z,97669.28
2023-02-19T10:13:32.752Z,97677.06
2023-02-19T10:16:10.576Z,97681.47
2023-02-19T10:18:42.974Z,97669.19
2023-02-19T10:21:22.394Z,97671.16
2023-02-19T10:23:56.603Z,97672.91
2023-02-19T10:26:25.747Z,97661.63
2023-02-19T10:28:56.072Z,97669.09
2023-02-19T10:31:26.923Z,97672.31
2023-02-19T10:33:58.688Z,97675.13
2023-02-19T10:36:38.088Z,97670.16
2023-02-19T10:39:32.240Z,97678.03
2023-02-19T10:42:01.083Z,97675.69
2023-02-19T10:44:36.359Z,97671.88
2023-02-19T10:47:05.557Z,97676.09
2023-02-19T10:49:41.456Z,97682.97
2023-02-19T10:52:22.107Z,97677.41
2023-02-19T10:54:55.913Z,97675.78
2023-02-19T10:57:34.584Z,97682.28
2023-02-19T11:00:23.673Z,97674.66
2023-02-19T11:03:20.495Z,97667.22
2023-02-19T11:05:59.250Z,97670.66
2023-02-19T11:08:28.255Z,97668.59
2023-02-19T11:10:57.078Z,97672.88
2023-02-19T11:13:33.481Z,97680.09
2023-02-19T11:16:02.408Z,97672.50
2023-02-19T11:18:36.991Z,97674.66
2023-02-19T11:21:07.976Z,97677.59
2023-02-19T11:23:44.611Z,97676.59
2023-02-19T11:26:26.169Z,97677.06
2023-02-19T11:29:11.990Z,97671.88
2023-02-19T11:31:41.011Z,97667.25
2023-02-19T11:34:16.466Z,97667.47
2023-02-19T11:36:45.362Z,97655.03
2023-02-19T11:39:17.128Z,97663.47
2023-02-19T11:42:00.555Z,97668.69
2023-02-19T11:44:51.308Z,97665.06
2023-02-19T11:47:44.215Z,97669.50
2023-02-19T11:50:43.533Z,97657.25
2023-02-19T11:53:29.506Z,97663.06
2023-02-19T11:56:12.638Z,97656.41
2023-02-19T11:58:44.212Z,97663.06
2023-02-19T12:01:47.724Z,97659.84
2023-02-19T12:04:53.826Z,97658.47
2023-02-19T12:07:59.743Z,97645.78
2023-02-19T12:10:46.659Z,97648.59
2023-02-19T12:13:30.594Z,97639.41
2023-02-19T12:16:23.489Z,97636.63
2023-02-19T12:18:52.298Z,97636.63
2023-02-19T12:22:08.728Z,97633.41
2023-02-19T12:25:32.848Z,97627.81
2023-02-19T12:28:08.407Z,97628.25
2023-02-19T12:31:02.407Z,97631.47
2023-02-19T12:33:57.747Z,97626.84
2023-02-19T12:37:04.478Z,97621.63
2023-02-19T12:39:44.060Z,97621.59
2023-02-19T12:42:28.987Z,97618.41
2023-02-19T12:45:11.188Z,97608.97
2023-02-19T12:47:43.936Z,97616.59
2023-02-19T12:50:26.410Z,97616.19
2023-02-19T12:53:06.434Z,97607.97
2023-02-19T12:55:42.237Z,97603.94
2023-02-19T12:58:18.145Z,97598.94
2023-02-19T13:00:54.940Z,97598.94
2023-02-19T13:04:07.846Z,97587.28
2023-02-19T13:06:56.033Z,97586.88
2023-02-19T13:09:42.131Z,97581.22
2023-02-19T13:12:33.985Z,97578.81
2023-02-19T13:15:08.494Z,97577.00
2023-02-19T13:17:45.175Z,97581.22
2023-02-19T13:20:17.002Z,97580.81
2023-02-19T13:23:26.028Z,97577.63
2023-02-19T13:26:07.140Z,97574.38
2023-02-19T13:28:35.996Z,97568.78
2023-02-19T13:31:46.344Z,97574.78
2023-02-19T13:34:48.344Z,97564.53
2023-02-19T13:37:18.586Z,97571.56
2023-02-19T13:39:52.956Z,97561.53
2023-02-19T13:42:29.790Z,97571.75
2023-02-19T13:44:58.882Z,97567.53
2023-02-19T13:47:45.799Z,97564.75
2023-02-19T13:50:25.342Z,97553.88
2023-02-19T13:52:56.424Z,97558.69
2023-02-19T13:55:43.631Z,97557.28
2023-02-19T13:58:34.202Z,97554.88
2023-02-19T14:01:14.489Z,97547.66
2023-02-19T14:03:56.104Z,97548.88
2023-02-19T14:06:25.469Z,97549.28
2023-02-19T14:09:00.889Z,97540.81
2023-02-19T14:11:45.081Z,97546.25
2023-02-19T14:14:29.550Z,97541.03
2023-02-19T14:17:08.072Z,97537.00
2023-02-19T14:19:43.344Z,97533.97
2023-02-19T14:23:03.897Z,97536.22
2023-02-19T14:25:42.069Z,97537.22
2023-02-19T14:28:36.915Z,97533.38
2023-02-19T14:31:11.864Z,97536.22
2023-02-19T14:33:46.703Z,97540.19
2023-02-19T14:36:44.822Z,97534.97
2023-02-19T14:39:15.702Z,97527.34
2023-02-19T14:41:59.033Z,97534.38
2023-02-19T14:44:47.386Z,97529.56
2023-02-19T14:47:19.789Z,97536.78
2023-02-19T14:49:53.257Z,97544.81
2023-02-19T14:52:31.143Z,97533.75
2023-02-19T14:55:24.367Z,97526.69
2023-02-19T14:57:55.249Z,97527.50
2023-02-19T15:00:28.294Z,97530.72
2023-02-19T15:03:00.291Z,97517.63
2023-02-19T15:05:38.192Z,97523.88
2023-02-19T15:08:17.151Z,97521.47
2023-02-19T15:10:46.480Z,97517.06
2023-02-19T15:13:22.323Z,97520.47
2023-02-19T15:15:51.676Z,97516.63
2023-02-19T15:18:25.964Z,97518.03
2023-02-19T15:21:03.916Z,97517.41
2023-02-19T15:23:36.421Z,97510.59
2023-02-19T15:26:05.496Z,97508.00
2023-02-19T15:28:35.132Z,97512.59
2023-02-19T15:31:16.332Z,97511.19
2023-02-19T15:33:54.585Z,97508.34
2023-02-19T15:36:30.644Z,97502.13
2023-02-19T15:39:03.033Z,97501.94
2023-02-19T15:41:35.777Z,97515.19
2023-02-19T15:44:15.642Z,97515.19
2023-02-19T15:46:46.785Z,97506.38
2023-02-19T15:49:26.293Z,97499.09
2023-02-19T15:52:07.194Z,97486.44
2023-02-19T15:54:58.996Z,97501.31
2023-02-19T15:57:33.268Z,97496.09
2023-02-19T16:00:26.079Z,97492.28
2023-02-19T16:02:56.139Z,97489.06
2023-02-19T16:05:28.336Z,97484.47
2023-02-19T16:08:19.852Z,97484.06
2023-02-19T16:10:57.863Z,97485.50
2023-02-19T16:13:30.855Z,97482.69
2023-02-19T16:16:04.691Z,97475.91
2023-02-19T16:18:34.412Z,97476.13
2023-02-19T16:21:09.695Z,97493.81
2023-02-19T16:23:47.397Z,97485.16
2023-02-19T16:26:16.798Z,97495.81
2023-02-19T16:28:50.926Z,97489.00
2023-02-19T16:31:23.444Z,97478.75
2023-02-19T16:33:52.874Z,97485.59
2023-02-19T16:36:21.946Z,97479.16
2023-02-19T16:39:09.270Z,97487.59
2023-02-19T16:41:41.197Z,97485.22
2023-02-19T16:44:36.680Z,97487.03
2023-02-19T16:47:13.864Z,97482.59
2023-02-19T16:49:43.273Z,97473.97
2023-02-19T16:52:17.426Z,97483.81
2023-02-19T16:54:47.918Z,97474.38
2023-02-19T16:57:16.863Z,97485.41
2023-02-19T16:59:45.927Z,97485.03
2023-02-19T17:02:21.705Z,97492.88
2023-02-19T17:04:52.485Z,97484.81
2023-02-19T17:07:23.000Z,97488.03
2023-02-19T17:09:52.156Z,97487.22
2023-02-19T17:12:21.704Z,97482.22
2023-02-19T17:14:50.924Z,97467.53
2023-02-19T17:17:19.841Z,97459.31
2023-02-19T17:19:49.091Z,97475.16
2023-02-19T17:22:18.358Z,97458.91
2023-02-19T17:24:48.822Z,97472.75
2023-02-19T17:27:18.061Z,97460.13
2023-02-19T17:29:47.013Z,97460.69
2023-02-19T17:32:16.038Z,97465.75
2023-02-19T17:34:45.012Z,97466.13
2023-02-19T17:37:14.529Z,97462.31
2023-02-19T17:39:43.606Z,97459.91
2023-02-19T17:42:12.465Z,97456.31
2023-02-19T17:44:41.357Z,97453.69
2023-02-19T17:47:10.298Z,97449.06
2023-02-19T17:49:39.184Z,97447.88
2023-02-19T17:52:08.194Z,97445.25
2023-02-19T17:54:37.088Z,97444.88
2023-02-19T17:57:06.006Z,97443.84
2023-02-19T17:59:34.956Z,97446.88
2023-02-19T18:02:04.847Z,97451.88
2023-02-19T18:04:36.457Z,97455.09
2023-02-19T18:07:05.848Z,97449.06
2023-02-19T18:09:34.807Z,97447.84
2023-02-19T18:12:05.368Z,97454.09
2023-02-19T18:14:35.532Z,97454.69
2023-02-19T18:17:04.428Z,97443.25
2023-02-19T18:19:33.463Z,97443.25
2023-02-19T18:22:02.330Z,97437.22
2023-02-19T18:24:33.070Z,97442.06
2023-02-19T18:27:02.041Z,97434.59
2023-02-19T18:29:32.457Z,97433.19
2023-02-19T18:32:02.812Z,97427.19
2023-02-19T18:34:31.858Z,97429.78
2023-02-19T18:37:00.788Z,97432.63
2023-02-19T18:39:29.570Z,97428.59
2023-02-19T18:41:58.925Z,97423.75
2023-02-19T18:44:27.776Z,97417.72
2023-02-19T18:46:56.834Z,97413.91
2023-02-19T18:49:25.722Z,97401.50
2023-02-19T18:51:54.592Z,97399.66
2023-02-19T18:54:24.734Z,97395.66
2023-02-19T18:56:53.746Z,97394.25
2023-02-19T18:59:23.100Z,97385.03
2023-02-19T19:01:52.869Z,97401.09
2023-02-19T19:04:21.957Z,97408.13
2023-02-19T19:06:50.907Z,97399.50
2023-02-19T19:09:19.738Z,97398.47
2023-02-19T19:11:48.680Z,97402.09
2023-02-19T19:14:17.623Z,97407.28
2023-02-19T19:16:46.556Z,97401.63
2023-02-19T19:19:16.289Z,97406.47
2023-02-19T19:21:45.238Z,97402.03
2023-02-19T19:24:17.219Z,97398.22
2023-02-19T19:26:46.660Z,97398.00
2023-02-19T19:29:17.360Z,97406.22
2023-02-19T19:31:46.508Z,97388.94
2023-02-19T19:34:16.105Z,97394.16
2023-02-19T19:36:45.538Z,97393.19
2023-02-19T19:39:14.562Z,97391.56
2023-02-19T19:41:43.476Z,97384.97
2023-02-19T19:44:13.540Z,97382.34
2023-02-19T19:46:46.264Z,97377.72
2023-02-19T19:49:22.799Z,97373.09
2023-02-19T19:51:51.750Z,97369.88
2023-02-19T19:54:20.615Z,97374.53
2023-02-19T19:56:51.501Z,97375.50
2023-02-19T19:59:20.366Z,97370.69
2023-02-19T20:01:54.493Z,97374.28
2023-02-19T20:04:25.051Z,97369.28
2023-02-19T20:06:54.427Z,97363.44
2023-02-19T20:09:26.093Z,97362.66
2023-02-19T20:11:55.071Z,97353.22
2023-02-19T20:14:25.788Z,97351.03
2023-02-19T20:16:56.070Z,97344.81
2023-02-19T20:19:25.055Z,97347.00
2023-02-19T20:21:54.852Z,97349.59
2023-02-19T20:24:29.456Z,97351.41
2023-02-19T20:27:00.783Z,97351.00
2023-02-19T20:29:34.061Z,97356.00
2023-02-19T20:32:04.214Z,97356.19
2023-02-19T20:34:33.187Z,97358.59
2023-02-19T20:37:02.240Z,97351.19
2023-02-19T20:39:31.665Z,97353.41
2023-02-19T20:42:01.280Z,97351.63
2023-02-19T20:44:31.797Z,97354.38
2023-02-19T20:47:02.099Z,97351.78
2023-02-19T20:49:32.127Z,97354.19
2023-02-19T20:52:08.126Z,97369.66
2023-02-19T20:54:37.364Z,97358.44
2023-02-19T20:57:06.946Z,97359.47
2023-02-19T20:59:36.324Z,97355.84
2023-02-19T21:02:09.867Z,97360.28
2023-02-19T21:04:40.264Z,97361.06
2023-02-19T21:07:09.073Z,97361.28
2023-02-19T21:09:37.931Z,97359.25
2023-02-19T21:12:07.031Z,97348.63
2023-02-19T21:14:35.900Z,97340.19
2023-02-19T21:17:05.030Z,97336.19
2023-02-19T21:19:33.918Z,97343.22
2023-02-19T21:22:02.769Z,97346.03
2023-02-19T21:24:33.338Z,97333.41
2023-02-19T21:27:02.218Z,97331.63
2023-02-19T21:29:31.131Z,97329.41
2023-02-19T21:32:00.030Z,97336.44
2023-02-19T21:34:30.639Z,97336.22
2023-02-19T21:37:00.462Z,97333.00
2023-02-19T21:39:31.793Z,97325.19
2023-02-19T21:42:00.896Z,97327.41
2023-02-19T21:44:29.800Z,97336.59
2023-02-19T21:46:58.727Z,97340.81
2023-02-19T21:49:27.915Z,97332.34
2023-02-19T21:51:57.156Z,97320.94
2023-02-19T21:54:27.587Z,97324.16
2023-02-19T21:56:56.519Z,97327.13
2023-02-19T21:59:25.376Z,97337.78
2023-02-19T22:01:54.972Z,97339.19
2023-02-19T22:04:25.214Z,97334.59
2023-02-19T22:06:57.868Z,97329.94
2023-02-19T22:09:26.883Z,97322.13
2023-02-19T22:11:55.741Z,97330.34
2023-02-19T22:14:24.583Z,97326.94
2023-02-19T22:16:53.610Z,97335.34
2023-02-19T22:19:22.494Z,97324.34
2023-02-19T22:21:51.432Z,97329.13
2023-02-19T22:24:22.406Z,97321.88
2023-02-19T22:26:51.998Z,97320.50
2023-02-19T22:29:20.799Z,97321.63
2023-02-19T22:31:49.863Z,97319.03
2023-02-19T22:34:18.763Z,97321.41
2023-02-19T22:36:47.645Z,97320.00
2023-02-19T22:39:21.003Z,97323.19
2023-02-19T22:41:50.714Z,97315.56
2023-02-19T22:44:19.946Z,97321.97
2023-02-19T22:46:57.038Z,97316.97
2023-02-19T22:49:25.946Z,97316.94
2023-02-19T22:52:02.102Z,97327.19
2023-02-19T22:54:31.063Z,97332.56
2023-02-19T22:56:59.983Z,97332.38
2023-02-19T22:59:28.887Z,97333.16
2023-02-19T23:01:58.946Z,97341.84
2023-02-19T23:04:28.154Z,97339.69
2023-02-19T23:06:57.054Z,97341.50
2023-02-19T23:09:29.136Z,97342.16
2023-02-19T23:12:06.777Z,97345.00
2023-02-19T23:14:36.400Z,97343.16
2023-02-19T23:17:05.588Z,97349.00
2023-02-19T23:19:34.574Z,97345.81
2023-02-19T23:22:03.834Z,97343.00
2023-02-19T23:24:32.954Z,97333.56
2023-02-19T23:27:01.913Z,97338.41
2023-02-19T23:29:31.409Z,97343.97
2023-02-19T23:32:00.911Z,97338.94
2023-02-19T23:34:29.919Z,97325.13
2023-02-19T23:37:00.847Z,97328.34
2023-02-19T23:39:30.144Z,97329.16
2023-02-19T23:41:59.372Z,97334.34
2023-02-19T23:44:28.384Z,97325.94
2023-02-19T23:46:57.216Z,97328.56
2023-02-19T23:49:26.211Z,97332.97
2023-02-19T23:51:55.075Z,97326.34
2023-02-19T23:54:24.080Z,97326.38
2023-02-19T23:56:52.976Z,97316.34
2023-02-19T23:59:21.888Z,97320.16
